createdAt,value
2023-05-20T00:00:29.931Z,102724.81
2023-05-20T00:03:00.210Z,102719.63
2023-05-20T00:05:28.236Z,102713.81
2023-05-20T00:07:57.820Z,102728.59
2023-05-20T00:10:25.729Z,102716.19
2023-05-20T00:12:53.477Z,102720.84
2023-05-20T00:15:21.363Z,102715.47
2023-05-20T00:17:49.304Z,102713.38
2023-05-20T00:20:17.101Z,102712.59
2023-05-20T00:22:44.814Z,102716.59
2023-05-20T00:25:14.781Z,102703.03
2023-05-20T00:27:42.674Z,102708.88
2023-05-20T00:30:11.523Z,102703.38
2023-05-20T00:32:39.447Z,102701.28
2023-05-20T00:35:09.327Z,102705.38
2023-05-20T00:37:37.331Z,102696.09
2023-05-20T00:40:06.778Z,102694.22
2023-05-20T00:42:36.066Z,102700.91
2023-05-20T00:45:04.188Z,102692.66
2023-05-20T00:47:34.578Z,102701.38
2023-05-20T00:50:03.423Z,102697.63
2023-05-20T00:52:33.419Z,102705.16
2023-05-20T00:55:01.297Z,102694.88
2023-05-20T00:57:29.514Z,102693.06
2023-05-20T00:59:58.881Z,102700.69
2023-05-20T01:02:26.951Z,102692.59
2023-05-20T01:04:56.675Z,102698.41
2023-05-20T01:07:25.638Z,102696.34
2023-05-20T01:09:55.866Z,102690.44
2023-05-20T01:12:28.109Z,102690.28
2023-05-20T01:15:00.528Z,102693.19
2023-05-20T01:17:32.974Z,102687.28
2023-05-20T01:20:04.294Z,102694.78
2023-05-20T01:22:33.494Z,102686.38
2023-05-20T01:25:03.068Z,102680.00
2023-05-20T01:27:31.341Z,102681.56
2023-05-20T01:29:59.158Z,102683.06
2023-05-20T01:32:33.004Z,102684.81
2023-05-20T01:35:01.570Z,102680.31
2023-05-20T01:37:29.847Z,102677.56
2023-05-20T01:40:00.477Z,102674.97
2023-05-20T01:42:30.057Z,102674.28
2023-05-20T01:45:00.039Z,102680.66
2023-05-20T01:47:28.013Z,102676.34
2023-05-20T01:49:56.539Z,102677.34
2023-05-20T01:52:24.724Z,102672.88
2023-05-20T01:54:52.490Z,102674.38
2023-05-20T01:57:22.398Z,102676.44
2023-05-20T01:59:51.609Z,102676.88
2023-05-20T02:02:19.634Z,102674.28
2023-05-20T02:04:49.851Z,102678.38
2023-05-20T02:07:18.797Z,102673.50
2023-05-20T02:09:47.212Z,102675.22
2023-05-20T02:12:17.373Z,102675.47
2023-05-20T02:14:47.561Z,102673.91
2023-05-20T02:17:17.853Z,102678.69
2023-05-20T02:19:46.167Z,102678.84
2023-05-20T02:22:14.319Z,102679.00
2023-05-20T02:24:44.555Z,102668.31
2023-05-20T02:27:12.978Z,102666.59
2023-05-20T02:29:40.814Z,102673.25
2023-05-20T02:32:10.132Z,102670.38
2023-05-20T02:34:37.925Z,102667.75
2023-05-20T02:37:06.354Z,102667.38
2023-05-20T02:39:34.219Z,102667.84
2023-05-20T02:42:02.158Z,102674.06
2023-05-20T02:44:30.164Z,102662.19
2023-05-20T02:46:58.391Z,102664.41
2023-05-20T02:49:27.562Z,102662.34
2023-05-20T02:51:56.887Z,102665.41
2023-05-20T02:54:24.842Z,102659.78
2023-05-20T02:56:52.806Z,102669.34
2023-05-20T02:59:20.654Z,102675.84
2023-05-20T03:01:48.811Z,102665.41
2023-05-20T03:04:19.251Z,102661.97
2023-05-20T03:06:48.540Z,102659.13
2023-05-20T03:09:17.032Z,102671.44
2023-05-20T03:11:45.210Z,102662.19
2023-05-20T03:14:13.103Z,102662.19
2023-05-20T03:16:41.633Z,102664.94
2023-05-20T03:19:09.525Z,102665.63
2023-05-20T03:21:37.651Z,102664.50
2023-05-20T03:24:07.343Z,102668.38
2023-05-20T03:26:37.609Z,102660.13
2023-05-20T03:29:06.862Z,102661.31
2023-05-20T03:31:34.862Z,102666.81
2023-05-20T03:34:02.823Z,102665.63
2023-05-20T03:36:31.155Z,102670.28
2023-05-20T03:38:59.373Z,102663.91
2023-05-20T03:41:28.574Z,102671.84
2023-05-20T03:43:57.060Z,102658.09
2023-05-20T03:46:26.179Z,102668.22
2023-05-20T03:48:54.020Z,102667.03
2023-05-20T03:51:21.783Z,102662.03
2023-05-20T03:53:51.031Z,102662.19
2023-05-20T03:56:18.783Z,102664.94
2023-05-20T03:58:48.189Z,102666.81
2023-05-20T04:01:15.981Z,102670.97
2023-05-20T04:03:44.090Z,102662.72
2023-05-20T04:06:12.147Z,102666.97
2023-05-20T04:08:40.061Z,102661.88
2023-05-20T04:11:08.155Z,102662.72
2023-05-20T04:13:36.146Z,102658.31
2023-05-20T04:16:06.501Z,102663.34
2023-05-20T04:18:38.996Z,102665.38
2023-05-20T04:21:08.326Z,102669.41
2023-05-20T04:23:36.084Z,102672.53
2023-05-20T04:26:04.310Z,102675.16
2023-05-20T04:28:33.388Z,102680.16
2023-05-20T04:31:02.872Z,102683.53
2023-05-20T04:33:32.889Z,102685.97
2023-05-20T04:36:03.191Z,102683.47
2023-05-20T04:38:32.444Z,102683.31
2023-05-20T04:41:02.389Z,102680.16
2023-05-20T04:43:31.738Z,102684.50
2023-05-20T04:46:01.423Z,102687.25
2023-05-20T04:48:29.532Z,102687.06
2023-05-20T04:50:59.617Z,102685.88
2023-05-20T04:53:27.426Z,102688.50
2023-05-20T04:55:57.054Z,102690.38
2023-05-20T04:58:25.499Z,102689.06
2023-05-20T05:00:54.148Z,102687.19
2023-05-20T05:03:21.925Z,102689.19
2023-05-20T05:05:50.425Z,102687.19
2023-05-20T05:08:19.695Z,102687.56
2023-05-20T05:10:51.689Z,102691.47
2023-05-20T05:13:19.556Z,102692.03
2023-05-20T05:15:47.428Z,102690.63
2023-05-20T05:18:18.513Z,102693.03
2023-05-20T05:20:46.474Z,102691.63
2023-05-20T05:23:14.346Z,102693.22
2023-05-20T05:25:43.878Z,102690.63
2023-05-20T05:28:11.735Z,102695.47
2023-05-20T05:30:40.114Z,102698.47
2023-05-20T05:33:08.189Z,102694.00
2023-05-20T05:35:36.261Z,102690.22
2023-05-20T05:38:04.189Z,102678.06
2023-05-20T05:40:32.113Z,102687.88
2023-05-20T05:43:01.431Z,102686.69
2023-05-20T05:45:29.727Z,102686.47
2023-05-20T05:47:58.266Z,102694.25
2023-05-20T05:50:26.866Z,102689.44
2023-05-20T05:52:55.517Z,102679.22
2023-05-20T05:55:24.421Z,102693.47
2023-05-20T05:57:53.005Z,102676.66
2023-05-20T06:00:22.181Z,102690.09
2023-05-20T06:02:50.315Z,102673.13
2023-05-20T06:05:33.621Z,102672.94
2023-05-20T06:08:02.107Z,102679.63
2023-05-20T06:10:31.423Z,102671.16
2023-05-20T06:12:59.544Z,102683.09
2023-05-20T06:15:29.698Z,102683.09
2023-05-20T06:17:58.246Z,102677.28
2023-05-20T06:20:27.388Z,102678.22
2023-05-20T06:22:55.521Z,102679.63
2023-05-20T06:25:26.214Z,102693.84
2023-05-20T06:27:54.200Z,102688.56
2023-05-20T06:30:23.556Z,102685.81
2023-05-20T06:32:53.081Z,102680.66
2023-05-20T06:35:21.189Z,102688.19
2023-05-20T06:37:49.044Z,102691.09
2023-05-20T06:40:17.810Z,102697.69
2023-05-20T06:42:45.811Z,102693.53
2023-05-20T06:45:14.624Z,102688.19
2023-05-20T06:47:45.178Z,102693.59
2023-05-20T06:50:14.624Z,102690.22
2023-05-20T06:52:42.484Z,102680.97
2023-05-20T06:55:11.275Z,102675.88
2023-05-20T06:57:39.147Z,102675.38
2023-05-20T07:00:09.190Z,102675.78
2023-05-20T07:02:41.537Z,102662.72
2023-05-20T07:05:10.561Z,102656.91
2023-05-20T07:07:39.834Z,102661.78
2023-05-20T07:10:09.119Z,102651.50
2023-05-20T07:12:37.201Z,102652.81
2023-05-20T07:15:06.136Z,102650.50
2023-05-20T07:17:34.860Z,102649.72
2023-05-20T07:20:04.155Z,102648.88
2023-05-20T07:22:32.631Z,102651.00
2023-05-20T07:25:14.230Z,102653.38
2023-05-20T07:27:42.079Z,102659.13
2023-05-20T07:30:10.438Z,102664.22
2023-05-20T07:32:40.724Z,102660.31
2023-05-20T07:35:11.069Z,102657.63
2023-05-20T07:37:38.876Z,102662.63
2023-05-20T07:40:09.813Z,102656.13
2023-05-20T07:42:40.661Z,102654.16
2023-05-20T07:45:10.065Z,102645.72
2023-05-20T07:47:38.925Z,102649.50
2023-05-20T07:50:08.120Z,102643.41
2023-05-20T07:52:48.199Z,102635.13
2023-05-20T07:55:24.979Z,102637.97
2023-05-20T07:57:54.816Z,102644.16
2023-05-20T08:00:24.297Z,102646.56
2023-05-20T08:02:52.395Z,102642.41
2023-05-20T08:05:27.073Z,102645.06
2023-05-20T08:07:55.200Z,102643.16
2023-05-20T08:10:25.824Z,102634.66
2023-05-20T08:12:55.985Z,102633.66
2023-05-20T08:15:23.962Z,102634.59
2023-05-20T08:17:51.848Z,102633.00
2023-05-20T08:20:20.929Z,102623.94
2023-05-20T08:22:48.868Z,102625.66
2023-05-20T08:25:20.237Z,102623.78
2023-05-20T08:27:48.320Z,102622.09
2023-05-20T08:30:19.129Z,102620.34
2023-05-20T08:32:48.822Z,102613.84
2023-05-20T08:35:16.875Z,102617.19
2023-05-20T08:37:44.680Z,102612.88
2023-05-20T08:40:14.257Z,102606.84
2023-05-20T08:42:43.703Z,102605.31
2023-05-20T08:45:14.298Z,102600.34
2023-05-20T08:47:44.186Z,102597.63
2023-05-20T08:50:14.300Z,102600.75
2023-05-20T08:52:45.306Z,102600.06
2023-05-20T08:55:17.327Z,102588.38
2023-05-20T08:57:47.221Z,102587.00
2023-05-20T09:00:17.190Z,102590.28
2023-05-20T09:02:47.678Z,102590.28
2023-05-20T09:05:15.840Z,102592.66
2023-05-20T09:07:43.787Z,102592.16
2023-05-20T09:10:12.178Z,102585.63
2023-05-20T09:12:40.418Z,102585.97
2023-05-20T09:15:09.846Z,102586.13
2023-05-20T09:17:38.419Z,102593.91
2023-05-20T09:20:12.905Z,102588.22
2023-05-20T09:22:41.630Z,102579.44
2023-05-20T09:25:12.490Z,102572.38
2023-05-20T09:27:41.615Z,102569.94
2023-05-20T09:30:12.901Z,102573.91
2023-05-20T09:32:44.254Z,102567.16
2023-05-20T09:35:15.763Z,102576.00
2023-05-20T09:37:48.562Z,102566.66
2023-05-20T09:40:21.305Z,102564.97
2023-05-20T09:42:53.978Z,102556.16
2023-05-20T09:45:23.401Z,102561.81
2023-05-20T09:47:53.475Z,102550.28
2023-05-20T09:50:24.665Z,102549.25
2023-05-20T09:52:55.482Z,102542.19
2023-05-20T09:55:26.192Z,102550.28
2023-05-20T09:57:55.209Z,102547.16
2023-05-20T10:00:23.410Z,102545.09
2023-05-20T10:02:52.961Z,102546.13
2023-05-20T10:05:24.250Z,102538.88
2023-05-20T10:08:23.454Z,102531.59
2023-05-20T10:10:57.789Z,102527.09
2023-05-20T10:13:44.209Z,102530.56
2023-05-20T10:16:25.088Z,102528.00
2023-05-20T10:19:03.127Z,102521.44
2023-05-20T10:21:33.293Z,102514.69
2023-05-20T10:24:08.097Z,102516.06
2023-05-20T10:26:37.252Z,102511.44
2023-05-20T10:29:17.818Z,102511.28
2023-05-20T10:31:46.716Z,102505.75
2023-05-20T10:34:17.419Z,102499.38
2023-05-20T10:36:49.310Z,102503.22
2023-05-20T10:39:18.013Z,102497.69
2023-05-20T10:41:46.035Z,102494.44
2023-05-20T10:44:13.851Z,102500.28
2023-05-20T10:46:57.181Z,102505.63
2023-05-20T10:49:36.131Z,102497.31
2023-05-20T10:52:05.709Z,102496.81
2023-05-20T10:54:37.074Z,102490.38
2023-05-20T10:57:09.239Z,102490.88
2023-05-20T10:59:37.496Z,102491.75
2023-05-20T11:02:06.044Z,102484.50
2023-05-20T11:04:34.059Z,102488.13
2023-05-20T11:07:02.480Z,102485.72
2023-05-20T11:09:32.356Z,102483.31
2023-05-20T11:12:00.260Z,102473.50
2023-05-20T11:14:29.833Z,102478.81
2023-05-20T11:16:59.117Z,102472.03
2023-05-20T11:19:27.728Z,102470.78
2023-05-20T11:21:56.004Z,102467.19
2023-05-20T11:24:26.756Z,102456.41
2023-05-20T11:26:58.468Z,102463.16
2023-05-20T11:29:28.995Z,102455.78
2023-05-20T11:31:57.150Z,102451.97
2023-05-20T11:34:26.822Z,102452.56
2023-05-20T11:36:58.710Z,102458.72
2023-05-20T11:39:27.872Z,102454.00
2023-05-20T11:41:57.307Z,102445.84
2023-05-20T11:44:26.398Z,102440.16
2023-05-20T11:47:01.099Z,102440.47
2023-05-20T11:49:29.190Z,102437.53
2023-05-20T11:51:58.081Z,102434.91
2023-05-20T11:54:26.033Z,102422.75
2023-05-20T11:56:57.074Z,102415.97
2023-05-20T11:59:25.736Z,102423.94
2023-05-20T12:01:53.798Z,102414.47
2023-05-20T12:04:21.889Z,102418.81
2023-05-20T12:06:49.733Z,102421.13
2023-05-20T12:09:17.683Z,102416.16
2023-05-20T12:11:45.612Z,102412.19
2023-05-20T12:14:14.945Z,102406.66
2023-05-20T12:16:42.687Z,102415.28
2023-05-20T12:19:10.590Z,102404.94
2023-05-20T12:21:38.776Z,102416.25
2023-05-20T12:24:08.561Z,102400.03
2023-05-20T12:26:36.636Z,102401.38
2023-05-20T12:29:04.611Z,102402.09
2023-05-20T12:31:35.118Z,102406.94
2023-05-20T12:34:03.770Z,102398.75
2023-05-20T12:36:32.361Z,102400.13
2023-05-20T12:39:00.479Z,102393.84
2023-05-20T12:41:28.429Z,102389.81
2023-05-20T12:43:56.645Z,102396.78
2023-05-20T12:46:24.713Z,102400.63
2023-05-20T12:48:53.957Z,102385.16
2023-05-20T12:51:21.730Z,102387.53
2023-05-20T12:53:49.554Z,102373.75
2023-05-20T12:56:17.735Z,102378.84
2023-05-20T12:58:46.279Z,102373.19
2023-05-20T13:01:14.250Z,102380.03
2023-05-20T13:03:42.221Z,102377.06
2023-05-20T13:06:11.458Z,102375.72
2023-05-20T13:08:39.317Z,102365.13
2023-05-20T13:11:07.324Z,102370.00
2023-05-20T13:13:35.190Z,102358.72
2023-05-20T13:16:03.531Z,102357.16
2023-05-20T13:18:31.261Z,102363.25
2023-05-20T13:20:59.109Z,102367.19
2023-05-20T13:23:28.314Z,102363.28
2023-05-20T13:25:56.582Z,102351.84
2023-05-20T13:28:24.480Z,102356.44
2023-05-20T13:30:52.525Z,102345.78
2023-05-20T13:33:20.348Z,102342.91
2023-05-20T13:35:48.313Z,102340.38
2023-05-20T13:38:16.310Z,102347.25
2023-05-20T13:40:45.479Z,102340.00
2023-05-20T13:43:13.274Z,102338.41
2023-05-20T13:45:41.056Z,102340.69
2023-05-20T13:48:08.865Z,102334.78
2023-05-20T13:50:36.790Z,102334.78
2023-05-20T13:53:05.314Z,102344.03
2023-05-20T13:55:33.096Z,102336.75
2023-05-20T13:58:02.294Z,102342.13
2023-05-20T14:00:30.151Z,102333.56
2023-05-20T14:02:59.203Z,102319.44
2023-05-20T14:05:27.504Z,102326.41
2023-05-20T14:07:55.453Z,102305.22
2023-05-20T14:10:23.529Z,102316.66
2023-05-20T14:12:51.686Z,102317.38
2023-05-20T14:15:21.789Z,102309.63
2023-05-20T14:17:49.619Z,102306.59
2023-05-20T14:20:17.763Z,102308.16
2023-05-20T14:22:45.623Z,102292.25
2023-05-20T14:25:13.608Z,102289.09
2023-05-20T14:27:41.388Z,102291.91
2023-05-20T14:30:10.788Z,102297.22
2023-05-20T14:32:40.075Z,102284.28
2023-05-20T14:35:09.028Z,102290.47
2023-05-20T14:37:36.926Z,102288.31
2023-05-20T14:40:07.448Z,102277.81
2023-05-20T14:42:35.564Z,102278.16
2023-05-20T14:45:03.673Z,102277.56
2023-05-20T14:47:31.568Z,102267.56
2023-05-20T14:50:01.309Z,102267.16
2023-05-20T14:52:29.217Z,102251.94
2023-05-20T14:54:57.636Z,102271.25
2023-05-20T14:57:25.508Z,102261.34
2023-05-20T14:59:53.292Z,102251.97
2023-05-20T15:02:21.204Z,102261.31
2023-05-20T15:04:49.020Z,102263.69
2023-05-20T15:07:21.343Z,102261.97
2023-05-20T15:09:49.959Z,102255.19
2023-05-20T15:12:17.712Z,102263.19
2023-05-20T15:14:45.491Z,102262.97
2023-05-20T15:17:13.724Z,102262.91
2023-05-20T15:19:41.954Z,102260.78
2023-05-20T15:22:10.072Z,102263.72
2023-05-20T15:24:39.405Z,102265.63
2023-05-20T15:27:07.386Z,102266.22
2023-05-20T15:29:35.236Z,102268.59
2023-05-20T15:32:03.353Z,102256.31
2023-05-20T15:34:31.351Z,102259.63
2023-05-20T15:36:59.467Z,102258.66
2023-05-20T15:39:28.499Z,102259.31
2023-05-20T15:41:59.453Z,102256.69
2023-05-20T15:44:28.751Z,102257.66
2023-05-20T15:46:56.688Z,102258.25
2023-05-20T15:49:24.592Z,102241.19
2023-05-20T15:52:03.023Z,102244.47
2023-05-20T15:54:32.302Z,102230.22
2023-05-20T15:57:02.753Z,102231.75
2023-05-20T15:59:30.789Z,102223.69
2023-05-20T16:01:58.750Z,102224.16
2023-05-20T16:04:26.674Z,102217.44
2023-05-20T16:06:54.529Z,102210.22
2023-05-20T16:09:22.495Z,102210.59
2023-05-20T16:11:50.326Z,102205.84
2023-05-20T16:14:19.673Z,102196.38
2023-05-20T16:16:47.571Z,102203.72
2023-05-20T16:19:15.540Z,102206.72
2023-05-20T16:21:43.332Z,102197.81
2023-05-20T16:24:11.105Z,102194.00
2023-05-20T16:26:39.057Z,102184.88
2023-05-20T16:29:06.902Z,102190.84
2023-05-20T16:31:36.280Z,102192.59
2023-05-20T16:34:04.912Z,102194.59
2023-05-20T16:36:32.800Z,102187.78
2023-05-20T16:39:00.838Z,102179.31
2023-05-20T16:41:28.801Z,102179.31
2023-05-20T16:43:56.758Z,102198.25
2023-05-20T16:46:24.700Z,102192.19
2023-05-20T16:48:53.886Z,102195.09
2023-05-20T16:51:22.069Z,102193.50
2023-05-20T16:53:49.862Z,102207.34
2023-05-20T16:56:17.706Z,102201.50
2023-05-20T16:58:45.576Z,102210.53
2023-05-20T17:01:13.428Z,102203.47
2023-05-20T17:03:41.214Z,102198.81
2023-05-20T17:06:10.428Z,102190.22
2023-05-20T17:08:39.037Z,102205.06
2023-05-20T17:11:06.857Z,102199.06
2023-05-20T17:13:34.591Z,102208.50
2023-05-20T17:16:02.433Z,102206.91
2023-05-20T17:18:30.357Z,102207.13
2023-05-20T17:20:58.217Z,102200.47
2023-05-20T17:23:27.351Z,102209.03
2023-05-20T17:25:55.292Z,102202.03
2023-05-20T17:28:23.305Z,102210.94
2023-05-20T17:30:51.222Z,102210.94
2023-05-20T17:33:19.278Z,102216.22
2023-05-20T17:35:47.168Z,102207.38
2023-05-20T17:38:14.942Z,102208.75
2023-05-20T17:40:44.182Z,102217.56
2023-05-20T17:43:11.983Z,102210.00
2023-05-20T17:45:39.865Z,102214.28
2023-05-20T17:48:10.101Z,102210.19
2023-05-20T17:50:39.500Z,102212.38
2023-05-20T17:53:07.427Z,102209.25
2023-05-20T17:55:36.525Z,102221.56
2023-05-20T17:58:07.149Z,102215.38
2023-05-20T18:00:41.948Z,102210.44
2023-05-20T18:03:10.556Z,102215.63
2023-05-20T18:05:38.736Z,102212.66
2023-05-20T18:08:06.780Z,102213.09
2023-05-20T18:10:34.874Z,102219.88
2023-05-20T18:13:04.009Z,102215.00
2023-05-20T18:15:33.291Z,102212.16
2023-05-20T18:18:01.424Z,102222.75
2023-05-20T18:20:29.703Z,102215.31
2023-05-20T18:22:58.748Z,102226.38
2023-05-20T18:25:27.384Z,102223.69
2023-05-20T18:27:55.286Z,102226.66
2023-05-20T18:30:23.397Z,102217.91
2023-05-20T18:32:53.267Z,102226.97
2023-05-20T18:35:21.081Z,102224.28
2023-05-20T18:37:48.911Z,102235.03
2023-05-20T18:40:16.749Z,102234.69
2023-05-20T18:42:44.546Z,102226.28
2023-05-20T18:45:12.997Z,102227.31
2023-05-20T18:47:40.908Z,102230.38
2023-05-20T18:50:11.295Z,102228.00
2023-05-20T18:52:39.092Z,102225.03
2023-05-20T18:55:08.060Z,102216.66
2023-05-20T18:57:35.835Z,102225.41
2023-05-20T19:00:07.671Z,102218.69
2023-05-20T19:02:35.463Z,102226.75
2023-05-20T19:05:03.513Z,102220.44
2023-05-20T19:07:33.108Z,102225.59
2023-05-20T19:10:01.266Z,102224.28
2023-05-20T19:12:29.296Z,102219.50
2023-05-20T19:14:57.163Z,102223.53
2023-05-20T19:17:25.374Z,102217.13
2023-05-20T19:19:53.179Z,102223.53
2023-05-20T19:22:21.080Z,102225.72
2023-05-20T19:24:50.214Z,102229.03
2023-05-20T19:27:17.988Z,102224.69
2023-05-20T19:29:45.951Z,102231.25
2023-05-20T19:32:13.724Z,102228.69
2023-05-20T19:34:41.857Z,102231.06
2023-05-20T19:37:09.582Z,102233.16
2023-05-20T19:39:37.383Z,102233.91
2023-05-20T19:42:07.013Z,102236.28
2023-05-20T19:44:34.985Z,102242.91
2023-05-20T19:47:05.496Z,102236.50
2023-05-20T19:49:33.783Z,102241.44
2023-05-20T19:52:01.764Z,102235.44
2023-05-20T19:54:29.871Z,102242.31
2023-05-20T19:56:58.005Z,102243.53
2023-05-20T19:59:27.247Z,102239.25
2023-05-20T20:01:55.286Z,102229.34
2023-05-20T20:04:23.097Z,102233.84
2023-05-20T20:06:51.095Z,102235.03
2023-05-20T20:09:18.914Z,102227.81
2023-05-20T20:11:46.733Z,102233.53
2023-05-20T20:14:14.474Z,102234.22
2023-05-20T20:16:48.758Z,102227.53
2023-05-20T20:19:22.851Z,102233.06
2023-05-20T20:21:52.976Z,102235.63
2023-05-20T20:24:21.362Z,102230.28
2023-05-20T20:26:49.256Z,102236.03
2023-05-20T20:29:17.094Z,102231.91
2023-05-20T20:31:46.501Z,102230.03
2023-05-20T20:34:14.418Z,102224.50
2023-05-20T20:36:44.906Z,102227.91
2023-05-20T20:39:18.897Z,102227.91
2023-05-20T20:41:47.393Z,102228.13
2023-05-20T20:44:18.594Z,102227.63
2023-05-20T20:46:50.735Z,102235.25
2023-05-20T20:49:18.898Z,102222.28
2023-05-20T20:51:46.695Z,102221.16
2023-05-20T20:54:15.315Z,102220.78
2023-05-20T20:56:45.396Z,102228.59
2023-05-20T20:59:13.865Z,102215.53
2023-05-20T21:01:42.286Z,102224.69
2023-05-20T21:04:13.820Z,102219.63
2023-05-20T21:06:45.872Z,102217.53
2023-05-20T21:09:13.929Z,102217.53
2023-05-20T21:11:42.815Z,102214.75
2023-05-20T21:14:10.642Z,102219.44
2023-05-20T21:16:38.651Z,102214.94
2023-05-20T21:19:06.587Z,102214.56
2023-05-20T21:21:36.174Z,102210.91
2023-05-20T21:24:04.382Z,102206.63
2023-05-20T21:26:32.149Z,102217.47
2023-05-20T21:28:59.985Z,102221.09
2023-05-20T21:31:28.047Z,102210.91
2023-05-20T21:33:56.022Z,102207.50
2023-05-20T21:36:23.828Z,102210.25
2023-05-20T21:38:52.954Z,102210.56
2023-05-20T21:41:21.529Z,102201.09
2023-05-20T21:43:49.348Z,102209.56
2023-05-20T21:46:17.212Z,102207.00
2023-05-20T21:48:44.990Z,102208.53
2023-05-20T21:51:13.177Z,102203.00
2023-05-20T21:53:41.960Z,102209.69
2023-05-20T21:56:11.419Z,102204.16
2023-05-20T21:58:42.714Z,102210.50
2023-05-20T22:01:10.789Z,102210.31
2023-05-20T22:03:39.876Z,102206.44
2023-05-20T22:06:08.027Z,102202.22
2023-05-20T22:08:35.853Z,102207.56
2023-05-20T22:11:07.204Z,102206.22
2023-05-20T22:13:41.315Z,102207.63
2023-05-20T22:16:09.855Z,102208.72
2023-05-20T22:18:38.489Z,102200.13
2023-05-20T22:21:06.806Z,102198.09
2023-05-20T22:23:34.547Z,102198.28
2023-05-20T22:26:02.804Z,102188.97
2023-05-20T22:28:30.615Z,102179.34
2023-05-20T22:30:59.855Z,102183.88
2023-05-20T22:33:27.834Z,102184.94
2023-05-20T22:35:57.220Z,102187.34
2023-05-20T22:38:25.636Z,102192.00
2023-05-20T22:40:53.368Z,102189.88
2023-05-20T22:43:23.237Z,102190.59
2023-05-20T22:45:51.407Z,102185.59
2023-05-20T22:48:23.108Z,102178.84
2023-05-20T22:50:51.083Z,102178.84
2023-05-20T22:53:18.882Z,102173.72
2023-05-20T22:55:46.711Z,102180.28
2023-05-20T22:58:14.605Z,102173.03
2023-05-20T23:00:44.331Z,102165.91
2023-05-20T23:03:12.199Z,102166.00
2023-05-20T23:05:41.459Z,102161.69
2023-05-20T23:08:09.280Z,102156.75
2023-05-20T23:10:37.038Z,102157.13
2023-05-20T23:13:05.660Z,102149.78
2023-05-20T23:15:33.935Z,102156.34
2023-05-20T23:18:02.320Z,102157.56
2023-05-20T23:20:30.276Z,102147.44
2023-05-20T23:23:03.459Z,102143.91
2023-05-20T23:25:36.550Z,102139.28
2023-05-20T23:28:05.728Z,102135.00
2023-05-20T23:30:33.916Z,102134.16
2023-05-20T23:33:02.182Z,102129.66
2023-05-20T23:35:30.181Z,102133.00
2023-05-20T23:37:59.553Z,102132.13
2023-05-20T23:40:27.358Z,102136.13
2023-05-20T23:42:55.248Z,102129.75
2023-05-20T23:45:23.192Z,102131.06
2023-05-20T23:47:51.057Z,102129.53
2023-05-20T23:50:18.852Z,102127.16
2023-05-20T23:52:46.658Z,102129.38
2023-05-20T23:55:18.301Z,102131.28
2023-05-20T23:57:46.134Z,102123.78
